< Cyclone 196914 1969 Season Cyclone 196916 >
Cyclone 196915 (UNNAMED)
General InformationTrack Information on Google Maps || ResourceGoogle EarthGE AnimationAtom FeedGeoJSON
Detalied Best Track (Time Zone = UTC)
Year Month Day Hour Lat. Long. Pressure (hPa) Wind (kt) Class Image Chart
1969 4 8 11 -11.2 156.0 1007 0 0 -- --
1969 4 8 17 -11.1 155.8 1005 0 0 -- --
1969 4 8 20 -11.0 155.7 1005 0 0 -- --
1969 4 8 23 -11.0 155.7 1006 0 0 -- --
1969 4 9 02 -10.9 155.6 1005 0 0 -- --
1969 4 9 05 -10.9 155.5 1004 0 0 -- --
1969 4 9 08 -10.9 155.4 1005 0 0 -- --
1969 4 9 11 -10.8 155.3 1006 0 0 -- --
1969 4 9 14 -10.8 155.3 1005 0 0 -- --
1969 4 9 17 -10.8 155.2 1003 0 0 -- --
1969 4 9 20 -10.8 155.0 1003 0 0 -- --
1969 4 9 23 -10.8 154.9 1004 0 0 -- --
1969 4 10 02 -10.8 154.8 1003 0 0 -- --
1969 4 10 05 -10.9 154.7 1001 0 0 -- --
1969 4 10 08 -11.0 154.6 1001 0 0 -- --
1969 4 10 11 -11.1 154.5 1001 0 0 -- --
1969 4 10 14 -11.1 154.4 1001 0 0 -- --
1969 4 10 17 -11.2 154.3 1001 0 0 -- --
1969 4 10 23 -11.4 154.2 1001 0 0 -- --
1969 4 11 02 -11.5 154.1 1001 0 0 -- --
1969 4 11 05 -11.6 154.0 1000 0 0 -- --
1969 4 11 08 -11.7 154.0 1000 0 0 -- --
1969 4 11 11 -11.7 153.9 1000 0 0 -- --
1969 4 11 14 -11.8 153.8 1000 0 0 -- --
1969 4 11 17 -11.9 153.7 1000 0 0 -- --
1969 4 11 20 -12.0 153.6 999 0 0 -- --
1969 4 11 23 -12.1 153.6 998 0 0 -- --
1969 4 12 02 -12.2 153.5 998 0 0 -- --
1969 4 12 05 -12.3 153.4 998 0 0 -- --
1969 4 12 08 -12.5 153.2 998 0 0 -- --
1969 4 12 11 -12.6 153.1 999 0 0 -- --
1969 4 12 14 -12.8 152.8 999 0 0 -- --
1969 4 12 17 -12.9 152.7 998 0 0 -- --
1969 4 12 20 -13.1 152.5 997 0 0 -- --
1969 4 12 23 -13.3 152.3 996 0 0 -- --
1969 4 13 02 -13.5 152.3 996 0 0 -- --
1969 4 13 05 -13.8 152.2 996 0 0 -- --
1969 4 13 08 -14.0 152.2 997 0 0 -- --
1969 4 13 11 -14.2 152.2 998 0 0 -- --
1969 4 13 14 -14.4 152.3 998 0 0 -- --
1969 4 13 17 -14.6 152.3 998 0 0 -- --
1969 4 13 20 -14.9 152.3 998 0 0 -- --
1969 4 13 23 -15.1 152.3 998 0 0 -- --
1969 4 14 02 -15.4 152.4 999 0 0 -- --
1969 4 14 05 -15.7 152.4 999 0 0 -- --
1969 4 14 08 -15.9 152.4 999 0 0 -- --
1969 4 14 11 -16.1 152.5 1000 0 0 -- --
1969 4 14 14 -16.3 152.6 1000 0 0 -- --
1969 4 14 17 -16.5 152.6 1000 0 0 -- --
1969 4 14 20 -16.9 152.9 1000 0 0 -- --
1969 4 14 23 -17.3 153.2 1001 0 0 -- --
1969 4 15 02 -17.9 153.9 1001 0 0 -- --
1969 4 15 05 -18.4 154.6 1001 0 0 -- --
1969 4 15 08 -19.2 155.6 1001 0 0 -- --
1969 4 15 11 -20.0 156.7 1002 0 0 -- --
1969 4 15 14 -20.4 157.1 1002 0 0 -- --
1969 4 15 17 -20.9 157.5 1002 0 0 -- --
1969 4 15 20 -21.4 157.8 1002 0 0 -- --
1969 4 15 23 -22.0 158.0 1003 0 0 -- --
< Cyclone 196914 1969 Season Cyclone 196916 >

Help